sensor_id;sensor_type;location;lat;lon;timestamp;P1;durP1;ratioP1;P2;durP2;ratioP2
37409;SDS011;23275;48.914;12.566;2023-09-19T00:02:16;9.05;;;2.15;;
37409;SDS011;23275;48.914;12.566;2023-09-19T00:04:42;6.55;;;2.10;;
37409;SDS011;23275;48.914;12.566;2023-09-19T00:07:08;3.65;;;1.75;;
37409;SDS011;23275;48.914;12.566;2023-09-19T00:09:34;5.45;;;1.85;;
37409;SDS011;23275;48.914;12.566;2023-09-19T00:12:04;6.38;;;2.28;;
37409;SDS011;23275;48.914;12.566;2023-09-19T00:14:30;6.93;;;2.05;;
37409;SDS011;23275;48.914;12.566;2023-09-19T00:16:59;7.03;;;1.88;;
37409;SDS011;23275;48.914;12.566;2023-09-19T00:19:25;4.88;;;2.00;;
37409;SDS011;23275;48.914;12.566;2023-09-19T00:21:51;6.95;;;2.28;;
37409;SDS011;23275;48.914;12.566;2023-09-19T00:24:18;6.28;;;1.98;;
37409;SDS011;23275;48.914;12.566;2023-09-19T00:26:43;5.13;;;1.90;;
37409;SDS011;23275;48.914;12.566;2023-09-19T00:29:11;6.30;;;2.10;;
37409;SDS011;23275;48.914;12.566;2023-09-19T00:31:42;5.22;;;1.80;;
37409;SDS011;23275;48.914;12.566;2023-09-19T00:34:08;5.00;;;1.92;;
37409;SDS011;23275;48.914;12.566;2023-09-19T00:36:35;6.65;;;2.30;;
37409;SDS011;23275;48.914;12.566;2023-09-19T00:39:04;5.90;;;1.40;;
37409;SDS011;23275;48.914;12.566;2023-09-19T00:41:31;4.40;;;1.60;;
37409;SDS011;23275;48.914;12.566;2023-09-19T00:43:57;9.32;;;1.98;;
37409;SDS011;23275;48.914;12.566;2023-09-19T00:46:25;9.50;;;1.67;;
37409;SDS011;23275;48.914;12.566;2023-09-19T00:48:50;5.50;;;1.63;;
37409;SDS011;23275;48.914;12.566;2023-09-19T00:51:16;5.30;;;2.05;;
37409;SDS011;23275;48.914;12.566;2023-09-19T00:53:46;5.78;;;2.08;;
37409;SDS011;23275;48.914;12.566;2023-09-19T00:56:12;7.15;;;1.70;;
37409;SDS011;23275;48.914;12.566;2023-09-19T00:58:40;4.53;;;1.90;;
37409;SDS011;23275;48.914;12.566;2023-09-19T01:01:05;3.70;;;1.70;;
37409;SDS011;23275;48.914;12.566;2023-09-19T01:03:36;5.70;;;1.88;;
37409;SDS011;23275;48.914;12.566;2023-09-19T01:06:01;4.93;;;1.83;;
37409;SDS011;23275;48.914;12.566;2023-09-19T01:08:27;3.40;;;1.80;;
37409;SDS011;23275;48.914;12.566;2023-09-19T01:11:08;3.22;;;1.65;;
37409;SDS011;23275;48.914;12.566;2023-09-19T01:16:36;5.05;;;1.80;;
37409;SDS011;23275;48.914;12.566;2023-09-19T01:22:00;8.15;;;1.73;;
37409;SDS011;23275;48.914;12.566;2023-09-19T01:30:32;4.75;;;1.70;;
37409;SDS011;23275;48.914;12.566;2023-09-19T01:33:01;3.78;;;1.67;;
37409;SDS011;23275;48.914;12.566;2023-09-19T01:35:27;5.30;;;2.80;;
37409;SDS011;23275;48.914;12.566;2023-09-19T01:37:53;7.40;;;1.80;;
37409;SDS011;23275;48.914;12.566;2023-09-19T01:40:19;6.25;;;1.70;;
37409;SDS011;23275;48.914;12.566;2023-09-19T01:43:03;7.57;;;2.00;;
37409;SDS011;23275;48.914;12.566;2023-09-19T01:45:44;5.78;;;1.80;;
37409;SDS011;23275;48.914;12.566;2023-09-19T01:51:08;5.05;;;1.90;;
37409;SDS011;23275;48.914;12.566;2023-09-19T01:56:38;4.47;;;1.60;;
37409;SDS011;23275;48.914;12.566;2023-09-19T01:59:24;3.63;;;2.08;;
37409;SDS011;23275;48.914;12.566;2023-09-19T02:01:53;6.20;;;1.90;;
37409;SDS011;23275;48.914;12.566;2023-09-19T02:04:20;6.50;;;2.20;;
37409;SDS011;23275;48.914;12.566;2023-09-19T02:06:45;6.80;;;2.15;;
37409;SDS011;23275;48.914;12.566;2023-09-19T02:09:12;5.65;;;2.65;;
37409;SDS011;23275;48.914;12.566;2023-09-19T02:11:39;8.18;;;2.20;;
37409;SDS011;23275;48.914;12.566;2023-09-19T02:14:06;4.88;;;2.10;;
37409;SDS011;23275;48.914;12.566;2023-09-19T02:16:33;5.10;;;2.15;;
37409;SDS011;23275;48.914;12.566;2023-09-19T02:18:59;6.85;;;2.30;;
37409;SDS011;23275;48.914;12.566;2023-09-19T02:21:25;6.45;;;2.50;;
37409;SDS011;23275;48.914;12.566;2023-09-19T02:23:54;4.07;;;2.10;;
37409;SDS011;23275;48.914;12.566;2023-09-19T02:26:20;6.25;;;2.35;;
37409;SDS011;23275;48.914;12.566;2023-09-19T02:28:46;5.32;;;2.08;;
37409;SDS011;23275;48.914;12.566;2023-09-19T02:31:12;8.25;;;2.33;;
37409;SDS011;23275;48.914;12.566;2023-09-19T02:33:37;8.88;;;2.72;;
37409;SDS011;23275;48.914;12.566;2023-09-19T02:36:03;7.18;;;2.60;;
37409;SDS011;23275;48.914;12.566;2023-09-19T02:38:30;6.90;;;2.40;;
37409;SDS011;23275;48.914;12.566;2023-09-19T02:40:56;5.35;;;2.80;;
37409;SDS011;23275;48.914;12.566;2023-09-19T02:43:22;5.85;;;2.45;;
37409;SDS011;23275;48.914;12.566;2023-09-19T02:45:48;7.43;;;2.80;;
37409;SDS011;23275;48.914;12.566;2023-09-19T02:48:15;6.55;;;2.90;;
37409;SDS011;23275;48.914;12.566;2023-09-19T02:50:41;7.38;;;2.47;;
37409;SDS011;23275;48.914;12.566;2023-09-19T02:53:07;7.55;;;2.30;;
37409;SDS011;23275;48.914;12.566;2023-09-19T02:55:33;4.88;;;2.75;;
37409;SDS011;23275;48.914;12.566;2023-09-19T02:57:59;5.97;;;2.88;;
37409;SDS011;23275;48.914;12.566;2023-09-19T03:00:26;7.43;;;3.08;;
37409;SDS011;23275;48.914;12.566;2023-09-19T03:02:53;5.25;;;2.70;;
37409;SDS011;23275;48.914;12.566;2023-09-19T03:05:19;5.97;;;2.55;;
37409;SDS011;23275;48.914;12.566;2023-09-19T03:07:46;5.40;;;3.20;;
37409;SDS011;23275;48.914;12.566;2023-09-19T03:10:16;4.63;;;3.08;;
37409;SDS011;23275;48.914;12.566;2023-09-19T03:12:42;9.65;;;3.30;;
37409;SDS011;23275;48.914;12.566;2023-09-19T03:15:08;9.43;;;3.50;;
37409;SDS011;23275;48.914;12.566;2023-09-19T03:17:34;8.15;;;3.05;;
37409;SDS011;23275;48.914;12.566;2023-09-19T03:20:01;8.32;;;3.25;;
37409;SDS011;23275;48.914;12.566;2023-09-19T03:22:27;5.90;;;3.03;;
37409;SDS011;23275;48.914;12.566;2023-09-19T03:24:53;5.65;;;3.10;;
37409;SDS011;23275;48.914;12.566;2023-09-19T03:27:19;6.57;;;3.00;;
37409;SDS011;23275;48.914;12.566;2023-09-19T03:29:45;5.00;;;2.92;;
37409;SDS011;23275;48.914;12.566;2023-09-19T03:32:11;5.35;;;2.88;;
37409;SDS011;23275;48.914;12.566;2023-09-19T03:34:37;5.75;;;3.53;;
37409;SDS011;23275;48.914;12.566;2023-09-19T03:37:08;6.45;;;3.20;;
37409;SDS011;23275;48.914;12.566;2023-09-19T03:39:34;10.05;;;3.45;;
37409;SDS011;23275;48.914;12.566;2023-09-19T03:42:00;8.15;;;3.38;;
37409;SDS011;23275;48.914;12.566;2023-09-19T03:44:27;7.10;;;2.92;;
37409;SDS011;23275;48.914;12.566;2023-09-19T03:46:53;10.77;;;3.20;;
37409;SDS011;23275;48.914;12.566;2023-09-19T03:49:20;5.68;;;2.95;;
37409;SDS011;23275;48.914;12.566;2023-09-19T03:51:46;5.97;;;2.55;;
37409;SDS011;23275;48.914;12.566;2023-09-19T03:54:11;5.72;;;2.83;;
37409;SDS011;23275;48.914;12.566;2023-09-19T03:56:37;6.55;;;2.90;;
37409;SDS011;23275;48.914;12.566;2023-09-19T03:59:03;7.80;;;3.05;;
37409;SDS011;23275;48.914;12.566;2023-09-19T04:01:29;5.78;;;2.88;;
37409;SDS011;23275;48.914;12.566;2023-09-19T04:03:57;8.90;;;3.45;;
37409;SDS011;23275;48.914;12.566;2023-09-19T04:06:22;5.72;;;3.28;;
37409;SDS011;23275;48.914;12.566;2023-09-19T04:08:48;6.63;;;2.70;;
37409;SDS011;23275;48.914;12.566;2023-09-19T04:11:14;9.15;;;2.95;;
37409;SDS011;23275;48.914;12.566;2023-09-19T04:13:39;9.18;;;2.70;;
37409;SDS011;23275;48.914;12.566;2023-09-19T04:16:05;7.82;;;3.03;;
37409;SDS011;23275;48.914;12.566;2023-09-19T04:18:32;6.38;;;2.85;;
37409;SDS011;23275;48.914;12.566;2023-09-19T04:20:58;4.93;;;2.72;;
37409;SDS011;23275;48.914;12.566;2023-09-19T04:23:27;10.55;;;3.70;;
37409;SDS011;23275;48.914;12.566;2023-09-19T04:25:53;7.15;;;2.60;;
37409;SDS011;23275;48.914;12.566;2023-09-19T04:28:19;13.05;;;3.50;;
37409;SDS011;23275;48.914;12.566;2023-09-19T04:30:44;8.43;;;3.05;;
37409;SDS011;23275;48.914;12.566;2023-09-19T04:33:10;5.75;;;3.30;;
37409;SDS011;23275;48.914;12.566;2023-09-19T04:35:39;7.35;;;3.38;;
37409;SDS011;23275;48.914;12.566;2023-09-19T04:38:07;6.40;;;3.03;;
37409;SDS011;23275;48.914;12.566;2023-09-19T04:40:33;5.20;;;3.00;;
37409;SDS011;23275;48.914;12.566;2023-09-19T04:42:59;6.35;;;3.13;;
37409;SDS011;23275;48.914;12.566;2023-09-19T04:45:25;7.63;;;3.33;;
37409;SDS011;23275;48.914;12.566;2023-09-19T04:47:51;4.85;;;2.63;;
37409;SDS011;23275;48.914;12.566;2023-09-19T04:50:18;6.78;;;3.35;;
37409;SDS011;23275;48.914;12.566;2023-09-19T04:52:46;8.32;;;3.22;;
37409;SDS011;23275;48.914;12.566;2023-09-19T04:55:16;5.82;;;2.78;;
37409;SDS011;23275;48.914;12.566;2023-09-19T04:57:46;6.75;;;2.60;;
37409;SDS011;23275;48.914;12.566;2023-09-19T05:00:16;7.95;;;3.33;;
37409;SDS011;23275;48.914;12.566;2023-09-19T05:02:44;9.73;;;3.10;;
37409;SDS011;23275;48.914;12.566;2023-09-19T05:05:11;5.65;;;3.45;;
37409;SDS011;23275;48.914;12.566;2023-09-19T05:07:43;6.07;;;2.92;;
37409;SDS011;23275;48.914;12.566;2023-09-19T05:10:10;7.65;;;2.70;;
37409;SDS011;23275;48.914;12.566;2023-09-19T05:12:37;5.00;;;2.78;;
37409;SDS011;23275;48.914;12.566;2023-09-19T05:15:03;5.53;;;2.50;;
37409;SDS011;23275;48.914;12.566;2023-09-19T05:17:29;3.78;;;2.47;;
37409;SDS011;23275;48.914;12.566;2023-09-19T05:19:56;6.90;;;2.60;;
37409;SDS011;23275;48.914;12.566;2023-09-19T05:22:23;8.75;;;2.95;;
37409;SDS011;23275;48.914;12.566;2023-09-19T05:24:49;4.28;;;2.75;;
37409;SDS011;23275;48.914;12.566;2023-09-19T05:27:16;6.15;;;2.83;;
37409;SDS011;23275;48.914;12.566;2023-09-19T05:29:42;5.95;;;3.45;;
37409;SDS011;23275;48.914;12.566;2023-09-19T05:32:09;4.18;;;2.53;;
37409;SDS011;23275;48.914;12.566;2023-09-19T05:34:38;7.70;;;2.80;;
37409;SDS011;23275;48.914;12.566;2023-09-19T05:37:04;9.85;;;3.33;;
37409;SDS011;23275;48.914;12.566;2023-09-19T05:39:32;4.50;;;2.47;;
37409;SDS011;23275;48.914;12.566;2023-09-19T05:41:58;7.40;;;2.55;;
37409;SDS011;23275;48.914;12.566;2023-09-19T05:44:25;4.07;;;2.38;;
37409;SDS011;23275;48.914;12.566;2023-09-19T05:46:50;8.55;;;2.60;;
37409;SDS011;23275;48.914;12.566;2023-09-19T05:49:17;5.97;;;2.40;;
37409;SDS011;23275;48.914;12.566;2023-09-19T05:51:43;3.25;;;1.80;;
37409;SDS011;23275;48.914;12.566;2023-09-19T05:54:08;9.13;;;2.30;;
37409;SDS011;23275;48.914;12.566;2023-09-19T05:56:35;4.95;;;1.95;;
37409;SDS011;23275;48.914;12.566;2023-09-19T05:59:01;7.65;;;1.98;;
37409;SDS011;23275;48.914;12.566;2023-09-19T06:01:28;4.03;;;1.65;;
37409;SDS011;23275;48.914;12.566;2023-09-19T06:03:56;4.78;;;1.95;;
37409;SDS011;23275;48.914;12.566;2023-09-19T06:06:21;4.40;;;1.80;;
37409;SDS011;23275;48.914;12.566;2023-09-19T06:08:47;4.03;;;1.85;;
37409;SDS011;23275;48.914;12.566;2023-09-19T06:11:15;8.75;;;2.05;;
37409;SDS011;23275;48.914;12.566;2023-09-19T06:13:41;5.13;;;1.65;;
37409;SDS011;23275;48.914;12.566;2023-09-19T06:16:06;5.15;;;1.63;;
37409;SDS011;23275;48.914;12.566;2023-09-19T06:18:32;5.28;;;1.77;;
37409;SDS011;23275;48.914;12.566;2023-09-19T06:20:58;5.75;;;1.70;;
37409;SDS011;23275;48.914;12.566;2023-09-19T06:23:25;3.63;;;1.05;;
37409;SDS011;23275;48.914;12.566;2023-09-19T06:25:52;2.83;;;1.27;;
37409;SDS011;23275;48.914;12.566;2023-09-19T06:28:18;5.65;;;1.30;;
37409;SDS011;23275;48.914;12.566;2023-09-19T06:33:14;4.00;;;1.10;;
37409;SDS011;23275;48.914;12.566;2023-09-19T06:35:40;4.30;;;1.10;;
37409;SDS011;23275;48.914;12.566;2023-09-19T06:38:07;3.78;;;1.30;;
37409;SDS011;23275;48.914;12.566;2023-09-19T06:40:33;2.65;;;1.00;;
37409;SDS011;23275;48.914;12.566;2023-09-19T06:42:59;3.47;;;1.23;;
37409;SDS011;23275;48.914;12.566;2023-09-19T06:45:27;3.20;;;1.00;;
37409;SDS011;23275;48.914;12.566;2023-09-19T06:47:53;3.25;;;0.90;;
37409;SDS011;23275;48.914;12.566;2023-09-19T06:50:22;5.40;;;1.38;;
37409;SDS011;23275;48.914;12.566;2023-09-19T06:52:49;1.92;;;0.98;;
37409;SDS011;23275;48.914;12.566;2023-09-19T06:55:17;2.60;;;1.10;;
37409;SDS011;23275;48.914;12.566;2023-09-19T06:57:44;3.78;;;1.00;;
37409;SDS011;23275;48.914;12.566;2023-09-19T07:00:11;3.38;;;1.00;;
37409;SDS011;23275;48.914;12.566;2023-09-19T07:02:59;2.50;;;0.98;;
37409;SDS011;23275;48.914;12.566;2023-09-19T07:05:26;2.83;;;1.00;;
37409;SDS011;23275;48.914;12.566;2023-09-19T07:07:52;5.13;;;0.80;;
37409;SDS011;23275;48.914;12.566;2023-09-19T07:10:19;3.97;;;1.02;;
37409;SDS011;23275;48.914;12.566;2023-09-19T07:12:52;2.95;;;1.05;;
37409;SDS011;23275;48.914;12.566;2023-09-19T07:15:20;4.68;;;1.15;;
37409;SDS011;23275;48.914;12.566;2023-09-19T07:17:47;3.42;;;1.17;;
37409;SDS011;23275;48.914;12.566;2023-09-19T07:20:13;2.47;;;1.05;;
37409;SDS011;23275;48.914;12.566;2023-09-19T07:22:41;2.45;;;0.90;;
37409;SDS011;23275;48.914;12.566;2023-09-19T07:25:07;4.70;;;1.05;;
37409;SDS011;23275;48.914;12.566;2023-09-19T07:27:33;3.85;;;0.95;;
37409;SDS011;23275;48.914;12.566;2023-09-19T07:29:58;1.88;;;1.15;;
37409;SDS011;23275;48.914;12.566;2023-09-19T07:32:24;3.03;;;1.20;;
37409;SDS011;23275;48.914;12.566;2023-09-19T07:34:49;4.15;;;1.13;;
37409;SDS011;23275;48.914;12.566;2023-09-19T07:37:16;2.92;;;1.00;;
37409;SDS011;23275;48.914;12.566;2023-09-19T07:39:42;4.00;;;1.15;;
37409;SDS011;23275;48.914;12.566;2023-09-19T07:42:08;2.67;;;0.93;;
37409;SDS011;23275;48.914;12.566;2023-09-19T07:44:35;4.15;;;1.13;;
37409;SDS011;23275;48.914;12.566;2023-09-19T07:47:01;2.38;;;1.00;;
37409;SDS011;23275;48.914;12.566;2023-09-19T07:49:28;2.78;;;0.88;;
37409;SDS011;23275;48.914;12.566;2023-09-19T07:51:54;3.45;;;0.95;;
37409;SDS011;23275;48.914;12.566;2023-09-19T07:54:19;2.95;;;1.00;;
37409;SDS011;23275;48.914;12.566;2023-09-19T07:56:46;5.93;;;1.40;;
37409;SDS011;23275;48.914;12.566;2023-09-19T07:59:11;2.88;;;0.98;;
37409;SDS011;23275;48.914;12.566;2023-09-19T08:01:38;2.55;;;1.02;;
37409;SDS011;23275;48.914;12.566;2023-09-19T08:04:06;5.25;;;1.27;;
37409;SDS011;23275;48.914;12.566;2023-09-19T08:06:32;2.70;;;1.50;;
37409;SDS011;23275;48.914;12.566;2023-09-19T08:08:58;3.88;;;1.48;;
37409;SDS011;23275;48.914;12.566;2023-09-19T08:11:25;2.40;;;1.10;;
37409;SDS011;23275;48.914;12.566;2023-09-19T08:13:51;3.97;;;1.50;;
37409;SDS011;23275;48.914;12.566;2023-09-19T08:16:17;2.47;;;1.25;;
37409;SDS011;23275;48.914;12.566;2023-09-19T08:18:47;1.83;;;1.08;;
37409;SDS011;23275;48.914;12.566;2023-09-19T08:21:13;4.30;;;1.55;;
37409;SDS011;23275;48.914;12.566;2023-09-19T08:23:39;2.33;;;1.13;;
37409;SDS011;23275;48.914;12.566;2023-09-19T08:26:05;2.78;;;1.10;;
37409;SDS011;23275;48.914;12.566;2023-09-19T08:28:34;2.03;;;0.77;;
37409;SDS011;23275;48.914;12.566;2023-09-19T08:31:04;2.63;;;1.00;;
37409;SDS011;23275;48.914;12.566;2023-09-19T08:33:34;1.55;;;0.82;;
37409;SDS011;23275;48.914;12.566;2023-09-19T08:36:01;5.00;;;0.90;;
37409;SDS011;23275;48.914;12.566;2023-09-19T08:38:30;3.40;;;0.88;;
37409;SDS011;23275;48.914;12.566;2023-09-19T08:40:58;3.65;;;0.90;;
37409;SDS011;23275;48.914;12.566;2023-09-19T08:43:30;3.42;;;0.80;;
37409;SDS011;23275;48.914;12.566;2023-09-19T08:46:02;3.92;;;1.23;;
37409;SDS011;23275;48.914;12.566;2023-09-19T08:48:32;3.65;;;0.90;;
37409;SDS011;23275;48.914;12.566;2023-09-19T08:51:03;4.00;;;0.88;;
37409;SDS011;23275;48.914;12.566;2023-09-19T08:56:17;4.38;;;1.13;;
37409;SDS011;23275;48.914;12.566;2023-09-19T08:58:48;2.45;;;0.70;;
37409;SDS011;23275;48.914;12.566;2023-09-19T09:01:26;2.25;;;1.10;;
37409;SDS011;23275;48.914;12.566;2023-09-19T09:03:53;3.90;;;0.90;;
37409;SDS011;23275;48.914;12.566;2023-09-19T09:06:20;3.55;;;1.10;;
37409;SDS011;23275;48.914;12.566;2023-09-19T09:08:46;2.28;;;0.70;;
37409;SDS011;23275;48.914;12.566;2023-09-19T09:11:13;3.25;;;0.73;;
37409;SDS011;23275;48.914;12.566;2023-09-19T09:13:40;1.65;;;0.60;;
37409;SDS011;23275;48.914;12.566;2023-09-19T09:16:06;1.92;;;0.80;;
37409;SDS011;23275;48.914;12.566;2023-09-19T09:18:32;2.20;;;0.70;;
37409;SDS011;23275;48.914;12.566;2023-09-19T09:20:58;2.22;;;0.75;;
37409;SDS011;23275;48.914;12.566;2023-09-19T09:23:24;3.33;;;0.80;;
37409;SDS011;23275;48.914;12.566;2023-09-19T09:25:54;2.65;;;0.70;;
37409;SDS011;23275;48.914;12.566;2023-09-19T09:28:25;3.03;;;1.20;;
37409;SDS011;23275;48.914;12.566;2023-09-19T09:30:53;1.75;;;0.70;;
37409;SDS011;23275;48.914;12.566;2023-09-19T09:33:19;1.58;;;0.80;;
37409;SDS011;23275;48.914;12.566;2023-09-19T09:35:49;2.22;;;0.95;;
37409;SDS011;23275;48.914;12.566;2023-09-19T09:38:22;2.13;;;0.70;;
37409;SDS011;23275;48.914;12.566;2023-09-19T09:40:52;1.98;;;1.02;;
37409;SDS011;23275;48.914;12.566;2023-09-19T09:46:09;2.20;;;0.80;;
37409;SDS011;23275;48.914;12.566;2023-09-19T09:48:48;2.10;;;0.75;;
37409;SDS011;23275;48.914;12.566;2023-09-19T09:51:50;2.53;;;0.90;;
37409;SDS011;23275;48.914;12.566;2023-09-19T09:55:01;2.90;;;0.80;;
37409;SDS011;23275;48.914;12.566;2023-09-19T09:57:33;1.77;;;0.70;;
37409;SDS011;23275;48.914;12.566;2023-09-19T10:00:00;4.10;;;0.90;;
37409;SDS011;23275;48.914;12.566;2023-09-19T10:02:36;3.25;;;0.98;;
37409;SDS011;23275;48.914;12.566;2023-09-19T10:07:43;1.70;;;0.70;;
37409;SDS011;23275;48.914;12.566;2023-09-19T10:10:34;3.35;;;1.20;;
37409;SDS011;23275;48.914;12.566;2023-09-19T10:13:06;2.40;;;1.00;;
37409;SDS011;23275;48.914;12.566;2023-09-19T10:15:37;2.42;;;0.93;;
37409;SDS011;23275;48.914;12.566;2023-09-19T10:18:07;1.90;;;0.77;;
37409;SDS011;23275;48.914;12.566;2023-09-19T10:20:36;2.33;;;0.77;;
37409;SDS011;23275;48.914;12.566;2023-09-19T10:23:07;3.38;;;0.77;;
37409;SDS011;23275;48.914;12.566;2023-09-19T10:25:38;3.67;;;0.90;;
37409;SDS011;23275;48.914;12.566;2023-09-19T10:28:09;2.28;;;0.90;;
37409;SDS011;23275;48.914;12.566;2023-09-19T10:30:42;1.55;;;0.50;;
37409;SDS011;23275;48.914;12.566;2023-09-19T10:33:16;4.38;;;0.85;;
37409;SDS011;23275;48.914;12.566;2023-09-19T10:35:45;2.45;;;0.73;;
37409;SDS011;23275;48.914;12.566;2023-09-19T10:38:15;5.57;;;0.90;;
37409;SDS011;23275;48.914;12.566;2023-09-19T10:40:49;2.92;;;0.70;;
37409;SDS011;23275;48.914;12.566;2023-09-19T10:43:17;5.00;;;0.95;;
37409;SDS011;23275;48.914;12.566;2023-09-19T10:45:47;3.17;;;0.70;;
37409;SDS011;23275;48.914;12.566;2023-09-19T10:48:19;4.75;;;0.90;;
37409;SDS011;23275;48.914;12.566;2023-09-19T10:50:52;6.95;;;1.55;;
37409;SDS011;23275;48.914;12.566;2023-09-19T10:53:29;3.33;;;0.93;;
37409;SDS011;23275;48.914;12.566;2023-09-19T10:56:08;2.05;;;0.98;;
37409;SDS011;23275;48.914;12.566;2023-09-19T10:58:42;2.08;;;0.70;;
37409;SDS011;23275;48.914;12.566;2023-09-19T11:01:09;1.85;;;0.60;;
37409;SDS011;23275;48.914;12.566;2023-09-19T11:03:38;2.50;;;0.75;;
37409;SDS011;23275;48.914;12.566;2023-09-19T11:11:40;1.77;;;0.70;;
37409;SDS011;23275;48.914;12.566;2023-09-19T11:30:45;2.23;;;0.73;;
37409;SDS011;23275;48.914;12.566;2023-09-19T11:33:20;1.83;;;0.52;;
37409;SDS011;23275;48.914;12.566;2023-09-19T11:46:30;1.10;;;0.50;;
37409;SDS011;23275;48.914;12.566;2023-09-19T11:49:07;2.00;;;0.60;;
37409;SDS011;23275;48.914;12.566;2023-09-19T11:51:39;0.80;;;0.40;;
37409;SDS011;23275;48.914;12.566;2023-09-19T11:54:10;1.30;;;0.47;;
37409;SDS011;23275;48.914;12.566;2023-09-19T11:56:40;2.15;;;0.73;;
37409;SDS011;23275;48.914;12.566;2023-09-19T11:59:07;2.20;;;0.60;;
37409;SDS011;23275;48.914;12.566;2023-09-19T12:01:33;2.05;;;0.60;;
37409;SDS011;23275;48.914;12.566;2023-09-19T12:04:00;2.88;;;0.57;;
37409;SDS011;23275;48.914;12.566;2023-09-19T12:06:29;3.22;;;0.60;;
37409;SDS011;23275;48.914;12.566;2023-09-19T12:08:57;1.35;;;0.50;;
37409;SDS011;23275;48.914;12.566;2023-09-19T12:11:27;1.65;;;0.75;;
37409;SDS011;23275;48.914;12.566;2023-09-19T12:13:58;0.80;;;0.40;;
37409;SDS011;23275;48.914;12.566;2023-09-19T12:16:26;2.65;;;0.80;;
37409;SDS011;23275;48.914;12.566;2023-09-19T12:18:55;1.33;;;0.67;;
37409;SDS011;23275;48.914;12.566;2023-09-19T12:21:25;3.70;;;0.80;;
37409;SDS011;23275;48.914;12.566;2023-09-19T12:26:29;1.73;;;0.95;;
37409;SDS011;23275;48.914;12.566;2023-09-19T12:28:59;1.40;;;0.70;;
37409;SDS011;23275;48.914;12.566;2023-09-19T12:31:26;1.92;;;0.85;;
37409;SDS011;23275;48.914;12.566;2023-09-19T12:33:53;3.10;;;0.98;;
37409;SDS011;23275;48.914;12.566;2023-09-19T12:36:20;2.30;;;0.85;;
37409;SDS011;23275;48.914;12.566;2023-09-19T12:38:56;3.30;;;1.27;;
37409;SDS011;23275;48.914;12.566;2023-09-19T12:41:25;3.28;;;1.00;;
37409;SDS011;23275;48.914;12.566;2023-09-19T12:43:54;3.83;;;0.80;;
37409;SDS011;23275;48.914;12.566;2023-09-19T12:46:21;3.28;;;1.00;;
37409;SDS011;23275;48.914;12.566;2023-09-19T12:48:51;2.33;;;0.90;;
37409;SDS011;23275;48.914;12.566;2023-09-19T12:51:47;2.33;;;0.90;;
37409;SDS011;23275;48.914;12.566;2023-09-19T12:54:13;2.35;;;0.82;;
37409;SDS011;23275;48.914;12.566;2023-09-19T12:56:43;2.72;;;0.93;;
37409;SDS011;23275;48.914;12.566;2023-09-19T12:59:10;3.20;;;0.90;;
37409;SDS011;23275;48.914;12.566;2023-09-19T13:01:40;2.10;;;0.90;;
37409;SDS011;23275;48.914;12.566;2023-09-19T13:06:44;1.58;;;0.70;;
37409;SDS011;23275;48.914;12.566;2023-09-19T13:09:11;1.50;;;0.70;;
37409;SDS011;23275;48.914;12.566;2023-09-19T13:11:37;1.58;;;0.60;;
37409;SDS011;23275;48.914;12.566;2023-09-19T13:14:18;1.02;;;0.52;;
37409;SDS011;23275;48.914;12.566;2023-09-19T13:17:01;4.50;;;1.63;;
37409;SDS011;23275;48.914;12.566;2023-09-19T13:19:51;1.88;;;0.77;;
37409;SDS011;23275;48.914;12.566;2023-09-19T13:22:41;2.15;;;0.60;;
37409;SDS011;23275;48.914;12.566;2023-09-19T13:25:11;2.40;;;0.65;;
37409;SDS011;23275;48.914;12.566;2023-09-19T13:27:43;1.45;;;0.50;;
37409;SDS011;23275;48.914;12.566;2023-09-19T13:30:13;2.67;;;0.70;;
37409;SDS011;23275;48.914;12.566;2023-09-19T13:32:40;2.10;;;0.53;;
37409;SDS011;23275;48.914;12.566;2023-09-19T13:35:08;1.80;;;0.70;;
37409;SDS011;23275;48.914;12.566;2023-09-19T13:37:38;0.80;;;0.50;;
37409;SDS011;23275;48.914;12.566;2023-09-19T13:40:08;3.05;;;0.70;;
37409;SDS011;23275;48.914;12.566;2023-09-19T13:42:34;1.48;;;0.60;;
37409;SDS011;23275;48.914;12.566;2023-09-19T13:45:02;3.08;;;0.55;;
37409;SDS011;23275;48.914;12.566;2023-09-19T13:47:31;1.85;;;0.50;;
37409;SDS011;23275;48.914;12.566;2023-09-19T13:49:57;1.67;;;0.50;;
37409;SDS011;23275;48.914;12.566;2023-09-19T13:52:23;1.55;;;0.70;;
37409;SDS011;23275;48.914;12.566;2023-09-19T13:54:52;1.42;;;0.40;;
37409;SDS011;23275;48.914;12.566;2023-09-19T13:57:23;2.25;;;0.63;;
37409;SDS011;23275;48.914;12.566;2023-09-19T13:59:50;1.73;;;0.68;;
37409;SDS011;23275;48.914;12.566;2023-09-19T14:02:17;4.07;;;0.60;;
37409;SDS011;23275;48.914;12.566;2023-09-19T14:04:43;2.75;;;0.50;;
37409;SDS011;23275;48.914;12.566;2023-09-19T14:07:09;1.52;;;0.60;;
37409;SDS011;23275;48.914;12.566;2023-09-19T14:09:35;1.60;;;0.65;;
37409;SDS011;23275;48.914;12.566;2023-09-19T14:12:02;3.05;;;0.50;;
37409;SDS011;23275;48.914;12.566;2023-09-19T14:14:28;2.00;;;0.60;;
37409;SDS011;23275;48.914;12.566;2023-09-19T14:16:53;1.83;;;0.50;;
37409;SDS011;23275;48.914;12.566;2023-09-19T14:19:20;0.73;;;0.32;;
37409;SDS011;23275;48.914;12.566;2023-09-19T14:21:45;1.33;;;0.50;;
37409;SDS011;23275;48.914;12.566;2023-09-19T14:24:13;1.40;;;0.60;;
37409;SDS011;23275;48.914;12.566;2023-09-19T14:26:42;1.10;;;0.50;;
37409;SDS011;23275;48.914;12.566;2023-09-19T14:29:08;1.42;;;0.50;;
37409;SDS011;23275;48.914;12.566;2023-09-19T14:31:36;1.75;;;0.60;;
37409;SDS011;23275;48.914;12.566;2023-09-19T14:34:03;2.72;;;0.60;;
37409;SDS011;23275;48.914;12.566;2023-09-19T14:36:29;3.50;;;0.70;;
37409;SDS011;23275;48.914;12.566;2023-09-19T14:38:55;1.80;;;0.65;;
37409;SDS011;23275;48.914;12.566;2023-09-19T14:41:22;1.70;;;0.70;;
37409;SDS011;23275;48.914;12.566;2023-09-19T14:43:50;1.48;;;0.60;;
37409;SDS011;23275;48.914;12.566;2023-09-19T14:46:20;1.70;;;0.60;;
37409;SDS011;23275;48.914;12.566;2023-09-19T14:48:46;1.17;;;0.47;;
37409;SDS011;23275;48.914;12.566;2023-09-19T14:51:12;1.38;;;0.70;;
37409;SDS011;23275;48.914;12.566;2023-09-19T14:53:38;2.25;;;0.70;;
37409;SDS011;23275;48.914;12.566;2023-09-19T14:56:05;2.35;;;0.50;;
37409;SDS011;23275;48.914;12.566;2023-09-19T14:58:32;2.83;;;0.70;;
37409;SDS011;23275;48.914;12.566;2023-09-19T15:01:09;1.85;;;0.60;;
37409;SDS011;23275;48.914;12.566;2023-09-19T15:03:38;2.72;;;0.80;;
37409;SDS011;23275;48.914;12.566;2023-09-19T15:06:05;1.35;;;0.60;;
37409;SDS011;23275;48.914;12.566;2023-09-19T15:08:34;4.07;;;0.70;;
37409;SDS011;23275;48.914;12.566;2023-09-19T15:11:03;4.22;;;0.77;;
37409;SDS011;23275;48.914;12.566;2023-09-19T15:13:35;2.10;;;0.70;;
37409;SDS011;23275;48.914;12.566;2023-09-19T15:16:05;2.10;;;0.80;;
37409;SDS011;23275;48.914;12.566;2023-09-19T15:18:38;2.78;;;0.60;;
37409;SDS011;23275;48.914;12.566;2023-09-19T15:21:07;2.08;;;0.60;;
37409;SDS011;23275;48.914;12.566;2023-09-19T15:23:35;1.33;;;0.65;;
37409;SDS011;23275;48.914;12.566;2023-09-19T15:26:05;1.80;;;0.80;;
37409;SDS011;23275;48.914;12.566;2023-09-19T15:28:32;1.95;;;0.80;;
37409;SDS011;23275;48.914;12.566;2023-09-19T15:33:31;3.15;;;0.65;;
37409;SDS011;23275;48.914;12.566;2023-09-19T15:41:29;2.22;;;0.85;;
37409;SDS011;23275;48.914;12.566;2023-09-19T15:43:56;1.20;;;0.63;;
37409;SDS011;23275;48.914;12.566;2023-09-19T15:46:24;1.40;;;0.52;;
37409;SDS011;23275;48.914;12.566;2023-09-19T15:48:51;2.03;;;0.80;;
37409;SDS011;23275;48.914;12.566;2023-09-19T15:51:17;2.08;;;0.85;;
37409;SDS011;23275;48.914;12.566;2023-09-19T15:53:44;2.30;;;0.70;;
37409;SDS011;23275;48.914;12.566;2023-09-19T15:56:12;1.90;;;0.68;;